createdAt,value
2023-01-25T00:01:44.322Z,12.73
2023-01-25T00:04:10.972Z,13.13
2023-01-25T00:06:38.806Z,13.75
2023-01-25T00:09:05.636Z,14.45
2023-01-25T00:11:32.103Z,14.15
2023-01-25T00:13:58.551Z,15.27
2023-01-25T00:16:25.002Z,14.32
2023-01-25T00:18:51.478Z,13.38
2023-01-25T00:21:18.893Z,12.65
2023-01-25T00:23:46.923Z,12.38
2023-01-25T00:26:13.897Z,11.75
2023-01-25T00:28:40.281Z,12.88
2023-01-25T00:31:07.370Z,12.15
2023-01-25T00:33:41.472Z,11.45
2023-01-25T00:36:22.731Z,10.77
2023-01-25T00:38:53.041Z,11.43
2023-01-25T00:41:19.616Z,12.93
2023-01-25T00:43:46.028Z,11.73
2023-01-25T00:46:14.774Z,11.95
2023-01-25T00:48:41.334Z,12.68
2023-01-25T00:51:07.768Z,11.18
2023-01-25T00:53:34.697Z,12.50
2023-01-25T00:56:02.453Z,12.57
2023-01-25T00:58:29.045Z,12.80
2023-01-25T01:00:56.543Z,12.10
2023-01-25T01:03:23.249Z,11.00
2023-01-25T01:05:58.588Z,12.38
2023-01-25T01:08:25.062Z,12.15
2023-01-25T01:10:51.453Z,13.07
2023-01-25T01:13:19.268Z,12.93
2023-01-25T01:15:45.697Z,13.45
2023-01-25T01:18:12.098Z,14.05
2023-01-25T01:20:38.524Z,13.88
2023-01-25T01:23:04.892Z,12.98
2023-01-25T01:25:32.348Z,11.35
2023-01-25T01:27:58.727Z,12.88
2023-01-25T01:30:26.772Z,13.95
2023-01-25T01:32:53.319Z,13.55
2023-01-25T01:35:19.803Z,15.68
2023-01-25T01:37:46.231Z,14.70
2023-01-25T01:40:14.538Z,14.82
2023-01-25T01:42:55.707Z,14.98
2023-01-25T01:45:40.787Z,14.90
2023-01-25T01:48:11.285Z,13.52
2023-01-25T01:50:37.842Z,14.20
2023-01-25T01:53:04.294Z,14.15
2023-01-25T01:55:30.816Z,12.80
2023-01-25T01:57:58.612Z,14.25
2023-01-25T02:00:26.642Z,13.13
2023-01-25T02:02:54.416Z,14.07
2023-01-25T02:05:25.977Z,14.23
2023-01-25T02:07:53.680Z,14.82
2023-01-25T02:10:20.452Z,15.02
2023-01-25T02:12:47.539Z,15.80
2023-01-25T02:15:14.300Z,16.63
2023-01-25T02:17:41.517Z,14.77
2023-01-25T02:20:14.673Z,14.25
2023-01-25T02:22:45.012Z,14.15
2023-01-25T02:25:14.220Z,13.93
2023-01-25T02:27:42.238Z,14.30
2023-01-25T02:30:09.451Z,13.52
2023-01-25T02:32:35.981Z,13.13
2023-01-25T02:35:02.440Z,15.70
2023-01-25T02:37:29.175Z,15.45
2023-01-25T02:39:55.651Z,14.77
2023-01-25T02:42:23.528Z,14.63
2023-01-25T02:44:50.805Z,14.73
2023-01-25T02:47:17.275Z,14.88
2023-01-25T02:49:43.713Z,15.02
2023-01-25T02:52:10.224Z,14.57
2023-01-25T02:54:36.761Z,15.98
2023-01-25T02:57:03.307Z,15.10
2023-01-25T02:59:31.299Z,15.52
2023-01-25T03:01:58.152Z,14.57
2023-01-25T03:04:24.571Z,15.52
2023-01-25T03:06:51.801Z,15.00
2023-01-25T03:09:18.300Z,15.65
2023-01-25T03:11:44.931Z,14.52
2023-01-25T03:14:11.351Z,14.77
2023-01-25T03:16:39.201Z,15.55
2023-01-25T03:19:05.722Z,15.43
2023-01-25T03:21:32.135Z,15.43
2023-01-25T03:23:59.316Z,15.70
2023-01-25T03:26:26.613Z,15.68
2023-01-25T03:28:53.135Z,14.15
2023-01-25T03:31:19.765Z,15.43
2023-01-25T03:33:48.568Z,16.38
2023-01-25T03:36:15.070Z,15.40
2023-01-25T03:38:41.542Z,16.33
2023-01-25T03:41:08.731Z,17.60
2023-01-25T03:43:35.173Z,16.20
2023-01-25T03:46:02.120Z,15.40
2023-01-25T03:48:28.828Z,15.55
2023-01-25T03:50:58.959Z,15.60
2023-01-25T03:53:32.866Z,15.45
2023-01-25T03:58:25.748Z,14.27
2023-01-25T04:00:54.423Z,15.48
2023-01-25T04:03:21.615Z,14.82
2023-01-25T04:05:48.156Z,15.23
2023-01-25T04:08:16.061Z,15.98
2023-01-25T04:10:42.551Z,16.00
2023-01-25T04:13:09.124Z,16.52
2023-01-25T04:15:35.681Z,17.20
2023-01-25T04:18:02.162Z,16.48
2023-01-25T04:20:28.602Z,15.13
2023-01-25T04:22:54.986Z,14.77
2023-01-25T04:25:22.836Z,13.90
2023-01-25T04:27:49.914Z,15.48
2023-01-25T04:30:16.530Z,15.15
2023-01-25T04:32:43.092Z,15.85
2023-01-25T04:35:09.956Z,15.32
2023-01-25T04:37:36.492Z,15.48
2023-01-25T04:40:04.172Z,16.00
2023-01-25T04:42:31.930Z,17.92
2023-01-25T04:44:58.358Z,16.50
2023-01-25T04:47:24.789Z,16.95
2023-01-25T04:49:51.187Z,19.52
2023-01-25T04:52:17.646Z,16.33
2023-01-25T04:54:44.160Z,15.68
2023-01-25T04:57:10.619Z,14.70
2023-01-25T04:59:38.439Z,17.30
2023-01-25T05:02:04.975Z,16.92
2023-01-25T05:04:31.380Z,15.57
2023-01-25T05:06:57.807Z,17.67
2023-01-25T05:09:24.213Z,16.30
2023-01-25T05:11:50.682Z,18.88
2023-01-25T05:14:17.187Z,18.75
2023-01-25T05:16:45.079Z,17.48
2023-01-25T05:19:12.155Z,16.15
2023-01-25T05:21:57.251Z,15.55
2023-01-25T05:24:23.795Z,15.45
2023-01-25T05:27:05.448Z,16.95
2023-01-25T05:29:32.672Z,16.73
2023-01-25T05:32:00.601Z,16.98
2023-01-25T05:34:27.119Z,16.95
2023-01-25T05:36:53.504Z,17.10
2023-01-25T05:39:20.341Z,19.23
2023-01-25T05:41:46.823Z,16.88
2023-01-25T05:44:13.414Z,14.10
2023-01-25T05:46:39.863Z,14.45
2023-01-25T05:49:07.876Z,16.08
2023-01-25T05:51:35.642Z,18.08
2023-01-25T05:54:02.177Z,18.17
2023-01-25T05:56:28.658Z,17.55
2023-01-25T05:58:55.516Z,17.65
2023-01-25T06:01:21.944Z,15.73
2023-01-25T06:03:48.642Z,17.52
2023-01-25T06:06:16.441Z,14.75
2023-01-25T06:08:42.932Z,16.42
2023-01-25T06:11:12.735Z,15.00
2023-01-25T06:13:39.252Z,17.42
2023-01-25T06:16:06.160Z,15.07
2023-01-25T06:18:33.660Z,15.30
2023-01-25T06:21:00.706Z,14.68
2023-01-25T06:23:28.994Z,16.98
2023-01-25T06:25:57.833Z,16.73
2023-01-25T06:28:24.331Z,16.45
2023-01-25T06:30:50.831Z,17.95
2023-01-25T06:33:17.321Z,16.67
2023-01-25T06:35:43.904Z,15.95
2023-01-25T06:38:10.565Z,17.20
2023-01-25T06:40:38.390Z,16.67
2023-01-25T06:43:07.895Z,17.65
2023-01-25T06:45:34.354Z,20.95
2023-01-25T06:48:00.818Z,15.70
2023-01-25T06:50:27.278Z,14.55
2023-01-25T06:52:54.149Z,14.18
2023-01-25T06:55:21.978Z,16.08
2023-01-25T06:57:50.180Z,14.65
2023-01-25T07:00:17.113Z,16.02
2023-01-25T07:02:43.608Z,15.90
2023-01-25T07:05:10.427Z,15.80
2023-01-25T07:07:37.279Z,15.38
2023-01-25T07:10:03.909Z,18.70
2023-01-25T07:12:30.497Z,17.40
2023-01-25T07:14:58.883Z,14.95
2023-01-25T07:17:25.266Z,16.48
2023-01-25T07:19:51.664Z,16.10
2023-01-25T07:22:18.221Z,17.40
2023-01-25T07:24:49.931Z,15.30
2023-01-25T07:27:16.659Z,17.13
2023-01-25T07:29:43.237Z,17.90
2023-01-25T07:32:11.810Z,17.25
2023-01-25T07:34:38.804Z,18.05
2023-01-25T07:37:05.349Z,15.82
2023-01-25T07:39:31.738Z,17.58
2023-01-25T07:41:58.246Z,17.45
2023-01-25T07:44:24.736Z,18.00
2023-01-25T07:46:51.192Z,17.50
2023-01-25T07:49:19.022Z,20.40
2023-01-25T07:51:45.524Z,17.00
2023-01-25T07:54:14.563Z,17.40
2023-01-25T07:56:41.049Z,17.63
2023-01-25T07:59:10.626Z,14.63
2023-01-25T08:01:37.590Z,20.17
2023-01-25T08:04:04.878Z,16.25
2023-01-25T08:06:39.199Z,15.75
2023-01-25T08:09:06.995Z,18.42
2023-01-25T08:11:33.886Z,15.70
2023-01-25T08:14:02.086Z,18.15
2023-01-25T08:16:29.026Z,19.10
2023-01-25T08:18:56.032Z,21.58
2023-01-25T08:21:25.403Z,20.20
2023-01-25T08:23:53.393Z,16.83
2023-01-25T08:26:21.063Z,19.77
2023-01-25T08:28:47.489Z,17.92
2023-01-25T08:31:15.015Z,19.33
2023-01-25T08:33:42.448Z,16.27
2023-01-25T08:36:10.192Z,16.05
2023-01-25T08:38:36.925Z,22.27
2023-01-25T08:41:08.658Z,18.35
2023-01-25T08:43:35.507Z,16.05
2023-01-25T08:46:02.221Z,16.70
2023-01-25T08:48:28.683Z,18.40
2023-01-25T08:50:55.521Z,16.67
2023-01-25T08:53:22.003Z,20.67
2023-01-25T08:55:48.726Z,22.42
2023-01-25T08:58:19.712Z,18.70
2023-01-25T09:00:46.279Z,16.10
2023-01-25T09:03:12.755Z,17.13
2023-01-25T09:05:39.698Z,15.52
2023-01-25T09:08:07.930Z,17.13
2023-01-25T09:10:34.662Z,14.68
2023-01-25T09:13:01.592Z,14.15
2023-01-25T09:15:29.397Z,16.75
2023-01-25T09:17:56.194Z,16.23
2023-01-25T09:20:22.947Z,15.77
2023-01-25T09:22:49.476Z,16.05
2023-01-25T09:25:15.931Z,17.45
2023-01-25T09:27:42.467Z,14.63
2023-01-25T09:30:18.149Z,13.57
2023-01-25T09:32:48.558Z,14.70
2023-01-25T09:35:15.205Z,14.65
2023-01-25T09:37:41.746Z,15.75
2023-01-25T09:40:17.814Z,15.02
2023-01-25T09:42:49.730Z,13.90
2023-01-25T09:45:21.245Z,15.80
2023-01-25T09:47:52.254Z,17.23
2023-01-25T09:50:42.976Z,25.65
2023-01-25T09:53:24.521Z,17.00
2023-01-25T09:55:54.040Z,15.68
2023-01-25T09:58:21.972Z,14.23
2023-01-25T10:00:51.059Z,18.88
2023-01-25T10:03:22.224Z,13.02
2023-01-25T10:05:49.798Z,17.50
2023-01-25T10:08:20.672Z,15.25
2023-01-25T10:10:50.372Z,16.70
2023-01-25T10:13:19.089Z,14.15
2023-01-25T10:15:48.158Z,14.35
2023-01-25T10:18:19.082Z,13.07
2023-01-25T10:20:48.894Z,14.20
2023-01-25T10:23:33.515Z,14.73
2023-01-25T10:26:00.558Z,14.02
2023-01-25T10:28:34.293Z,14.70
2023-01-25T10:31:02.242Z,14.52
2023-01-25T10:33:29.522Z,14.68
2023-01-25T10:36:00.033Z,14.20
2023-01-25T10:38:29.586Z,15.00
2023-01-25T10:40:58.717Z,14.82
2023-01-25T10:43:25.425Z,13.32
2023-01-25T10:45:51.904Z,16.33
2023-01-25T10:48:20.641Z,13.90
2023-01-25T10:50:54.102Z,14.68
2023-01-25T10:53:23.980Z,15.57
2023-01-25T10:56:06.406Z,13.98
2023-01-25T10:58:34.442Z,15.43
2023-01-25T11:01:01.678Z,13.55
2023-01-25T11:03:34.489Z,14.52
2023-01-25T11:06:01.069Z,14.23
2023-01-25T11:08:34.044Z,14.00
2023-01-25T11:11:00.634Z,13.70
2023-01-25T11:13:28.079Z,14.45
2023-01-25T11:15:56.166Z,14.38
2023-01-25T11:18:23.523Z,14.55
2023-01-25T11:21:03.456Z,12.82
2023-01-25T11:23:32.141Z,12.93
2023-01-25T11:26:11.078Z,12.82
2023-01-25T11:28:37.567Z,13.55
2023-01-25T11:31:04.275Z,12.35
2023-01-25T11:33:32.477Z,11.73
2023-01-25T11:36:06.285Z,12.40
2023-01-25T11:38:32.746Z,12.82
2023-01-25T11:41:05.681Z,12.38
2023-01-25T11:43:45.234Z,11.73
2023-01-25T11:46:25.381Z,12.27
2023-01-25T11:49:06.138Z,10.82
2023-01-25T11:51:35.932Z,9.95
2023-01-25T11:54:19.986Z,11.57
2023-01-25T11:56:52.571Z,10.77
2023-01-25T11:59:28.563Z,10.40
2023-01-25T12:01:59.772Z,8.57
2023-01-25T12:04:44.617Z,8.90
2023-01-25T12:07:14.075Z,8.50
2023-01-25T12:10:02.693Z,9.63
2023-01-25T12:12:35.985Z,9.75
2023-01-25T12:15:11.365Z,9.73
2023-01-25T12:17:45.122Z,10.55
2023-01-25T12:20:23.268Z,10.10
2023-01-25T12:22:54.887Z,8.55
2023-01-25T12:25:26.213Z,7.22
2023-01-25T12:27:58.964Z,7.53
2023-01-25T12:30:36.416Z,11.35
2023-01-25T12:33:14.374Z,10.73
2023-01-25T12:35:43.459Z,11.07
2023-01-25T12:38:12.526Z,11.68
2023-01-25T12:40:46.761Z,10.98
2023-01-25T12:43:15.702Z,10.77
2023-01-25T12:45:45.941Z,10.70
2023-01-25T12:48:16.928Z,10.45
2023-01-25T12:50:46.249Z,11.82
2023-01-25T12:53:17.295Z,10.82
2023-01-25T12:55:44.202Z,10.38
2023-01-25T12:58:15.533Z,13.45
2023-01-25T13:00:48.673Z,10.23
2023-01-25T13:03:21.986Z,10.18
2023-01-25T13:05:51.561Z,10.38
2023-01-25T13:08:31.079Z,10.23
2023-01-25T13:11:04.213Z,10.18
2023-01-25T13:13:31.297Z,10.85
2023-01-25T13:16:19.349Z,10.43
2023-01-25T13:18:47.196Z,10.02
2023-01-25T13:21:28.590Z,9.10
2023-01-25T13:24:08.823Z,9.30
2023-01-25T13:26:53.358Z,9.77
2023-01-25T13:29:53.095Z,9.30
2023-01-25T13:32:38.467Z,9.18
2023-01-25T13:35:24.604Z,8.80
2023-01-25T13:37:57.310Z,8.30
2023-01-25T13:40:28.813Z,7.55
2023-01-25T13:42:59.348Z,8.95
2023-01-25T13:45:26.325Z,9.45
2023-01-25T13:48:00.007Z,8.90
2023-01-25T13:50:30.712Z,8.85
2023-01-25T13:52:57.868Z,8.38
2023-01-25T13:55:24.443Z,8.27
2023-01-25T13:57:51.594Z,8.13
2023-01-25T14:00:19.979Z,10.60
2023-01-25T14:02:54.849Z,8.90
2023-01-25T14:05:22.213Z,9.50
2023-01-25T14:07:51.250Z,10.18
2023-01-25T14:10:24.085Z,10.27
2023-01-25T14:12:51.221Z,8.38
2023-01-25T14:15:18.350Z,7.90
2023-01-25T14:17:44.870Z,11.80
2023-01-25T14:20:17.575Z,7.45
2023-01-25T14:22:47.346Z,6.65
2023-01-25T14:25:17.040Z,7.47
2023-01-25T14:27:46.078Z,7.55
2023-01-25T14:30:16.585Z,7.97
2023-01-25T14:32:43.100Z,7.57
2023-01-25T14:35:42.710Z,7.88
2023-01-25T14:38:24.077Z,8.25
2023-01-25T14:40:53.507Z,9.77
2023-01-25T14:43:20.355Z,9.05
2023-01-25T14:45:46.863Z,9.45
2023-01-25T14:48:28.438Z,8.45
2023-01-25T14:51:02.388Z,8.38
2023-01-25T14:55:56.881Z,8.18
2023-01-25T14:58:24.409Z,8.60
2023-01-25T15:00:54.354Z,8.70
2023-01-25T15:03:22.552Z,8.73
2023-01-25T15:05:49.217Z,9.70
2023-01-25T15:08:16.694Z,7.90
2023-01-25T15:10:53.198Z,9.85
2023-01-25T15:13:22.424Z,8.70
2023-01-25T15:15:53.258Z,10.00
2023-01-25T15:18:38.472Z,9.85
2023-01-25T15:21:05.116Z,10.20
2023-01-25T15:23:31.692Z,10.55
2023-01-25T15:25:59.334Z,9.82
2023-01-25T15:28:29.562Z,9.43
2023-01-25T15:30:58.385Z,8.80
2023-01-25T15:33:25.855Z,9.20
2023-01-25T15:35:53.361Z,10.13
2023-01-25T15:38:20.076Z,8.55
2023-01-25T15:40:46.622Z,8.18
2023-01-25T15:43:15.373Z,9.30
2023-01-25T15:45:44.190Z,9.73
2023-01-25T15:48:12.693Z,8.60
2023-01-25T15:50:39.252Z,9.25
2023-01-25T15:53:05.691Z,10.27
2023-01-25T15:55:32.600Z,9.52
2023-01-25T15:57:59.121Z,8.93
2023-01-25T16:00:25.749Z,9.07
2023-01-25T16:02:53.654Z,9.38
2023-01-25T16:05:20.165Z,8.98
2023-01-25T16:07:46.661Z,9.60
2023-01-25T16:10:18.950Z,9.30
2023-01-25T16:12:45.475Z,9.55
2023-01-25T16:15:12.146Z,9.65
2023-01-25T16:17:38.654Z,9.38
2023-01-25T16:20:09.042Z,11.10
2023-01-25T16:22:36.001Z,12.60
2023-01-25T16:25:04.631Z,9.50
2023-01-25T16:27:35.778Z,9.05
2023-01-25T16:30:02.738Z,9.77
2023-01-25T16:32:29.229Z,8.68
2023-01-25T16:34:55.720Z,8.77
2023-01-25T16:37:23.540Z,9.05
2023-01-25T16:39:51.906Z,8.73
2023-01-25T16:42:18.911Z,9.10
2023-01-25T16:44:47.221Z,9.15
2023-01-25T16:47:14.197Z,8.88
2023-01-25T16:49:40.756Z,9.07
2023-01-25T16:52:07.544Z,8.80
2023-01-25T16:54:35.366Z,7.30
2023-01-25T16:57:08.691Z,8.05
2023-01-25T16:59:45.175Z,7.97
2023-01-25T17:02:12.725Z,8.25
2023-01-25T17:04:40.247Z,7.82
2023-01-25T17:07:08.611Z,8.77
2023-01-25T17:09:36.383Z,7.82
2023-01-25T17:12:02.930Z,7.57
2023-01-25T17:14:29.345Z,7.65
2023-01-25T17:16:55.828Z,8.88
2023-01-25T17:19:22.318Z,8.00
2023-01-25T17:21:48.820Z,8.30
2023-01-25T17:24:17.207Z,9.13
2023-01-25T17:26:45.048Z,9.45
2023-01-25T17:29:12.101Z,8.70
2023-01-25T17:31:39.880Z,9.10
2023-01-25T17:34:07.330Z,7.95
2023-01-25T17:36:34.119Z,7.80
2023-01-25T17:39:04.958Z,8.68
2023-01-25T17:41:31.988Z,9.23
2023-01-25T17:43:59.806Z,9.57
2023-01-25T17:46:30.016Z,9.35
2023-01-25T17:48:57.289Z,9.52
2023-01-25T17:51:24.975Z,10.27
2023-01-25T17:53:51.882Z,8.48
2023-01-25T17:56:19.180Z,8.43
2023-01-25T17:58:45.700Z,9.45
2023-01-25T18:01:14.688Z,9.13
2023-01-25T18:03:41.581Z,9.50
2023-01-25T18:06:09.511Z,9.45
2023-01-25T18:08:42.578Z,9.90
2023-01-25T18:11:10.224Z,9.03
2023-01-25T18:13:39.351Z,9.20
2023-01-25T18:16:06.459Z,9.20
2023-01-25T18:18:34.438Z,8.73
2023-01-25T18:21:08.287Z,10.40
2023-01-25T18:26:01.210Z,9.70
2023-01-25T18:28:27.782Z,23.63
2023-01-25T18:30:58.618Z,12.25
2023-01-25T18:33:25.209Z,10.32
2023-01-25T18:35:54.176Z,10.38
2023-01-25T18:38:20.990Z,10.70
2023-01-25T18:40:47.575Z,10.05
2023-01-25T18:43:16.486Z,10.43
2023-01-25T18:45:43.239Z,11.45
2023-01-25T18:48:14.544Z,10.88
2023-01-25T18:50:42.263Z,13.02
2023-01-25T18:53:10.325Z,12.52
2023-01-25T18:55:36.848Z,11.07
2023-01-25T18:58:04.198Z,15.55
2023-01-25T19:00:30.984Z,12.73
2023-01-25T19:02:57.609Z,12.65
2023-01-25T19:05:24.137Z,11.60
2023-01-25T19:07:50.830Z,10.07
2023-01-25T19:10:18.850Z,9.40
2023-01-25T19:12:45.332Z,9.00
2023-01-25T19:15:12.007Z,9.02
2023-01-25T19:17:38.556Z,8.88
2023-01-25T19:20:05.492Z,8.07
2023-01-25T19:22:31.993Z,7.50
2023-01-25T19:24:58.550Z,8.07
2023-01-25T19:27:28.860Z,8.90
2023-01-25T19:29:55.530Z,10.45
2023-01-25T19:32:22.079Z,9.95
2023-01-25T19:34:48.787Z,10.18
2023-01-25T19:37:15.458Z,9.32
2023-01-25T19:39:41.948Z,8.57
2023-01-25T19:42:09.084Z,8.60
2023-01-25T19:44:36.901Z,8.98
2023-01-25T19:47:03.628Z,9.95
2023-01-25T19:49:30.176Z,8.50
2023-01-25T19:51:56.810Z,8.18
2023-01-25T19:54:24.171Z,12.65
2023-01-25T19:56:51.041Z,44.45
2023-01-25T19:59:18.801Z,15.07
2023-01-25T20:01:46.791Z,9.15
2023-01-25T20:04:14.530Z,8.32
2023-01-25T20:06:41.438Z,9.55
2023-01-25T20:09:08.353Z,7.95
2023-01-25T20:11:34.891Z,8.52
2023-01-25T20:14:02.269Z,9.60
2023-01-25T20:16:30.503Z,7.50
2023-01-25T20:18:59.532Z,7.18
2023-01-25T20:21:26.685Z,8.57
2023-01-25T20:23:56.071Z,8.82
2023-01-25T20:26:23.956Z,8.30
2023-01-25T20:28:51.710Z,7.63
2023-01-25T20:31:19.255Z,7.22
2023-01-25T20:33:45.885Z,9.13
2023-01-25T20:36:13.779Z,7.72
2023-01-25T20:38:40.270Z,17.80
2023-01-25T20:41:07.553Z,7.10
2023-01-25T20:43:34.213Z,6.68
2023-01-25T20:46:01.075Z,7.28
2023-01-25T20:48:28.083Z,6.60
2023-01-25T20:51:00.041Z,7.75
2023-01-25T20:53:27.895Z,8.50
2023-01-25T20:55:54.812Z,10.43
2023-01-25T20:58:21.401Z,7.35
2023-01-25T21:00:47.898Z,9.55
2023-01-25T21:03:14.416Z,7.07
2023-01-25T21:05:48.385Z,17.73
2023-01-25T21:08:14.918Z,9.02
2023-01-25T21:10:47.549Z,9.05
2023-01-25T21:13:14.071Z,8.82
2023-01-25T21:15:40.565Z,8.73
2023-01-25T21:18:07.080Z,7.75
2023-01-25T21:20:35.145Z,8.63
2023-01-25T21:23:01.681Z,9.02
2023-01-25T21:25:28.172Z,10.15
2023-01-25T21:27:56.064Z,11.23
2023-01-25T21:30:23.225Z,47.22
2023-01-25T21:32:49.969Z,11.55
2023-01-25T21:35:16.396Z,9.68
2023-01-25T21:37:44.618Z,10.15
2023-01-25T21:40:11.741Z,8.80
2023-01-25T21:42:38.134Z,8.82
2023-01-25T21:45:25.293Z,7.82
2023-01-25T21:47:51.789Z,7.78
2023-01-25T21:50:36.903Z,7.57
2023-01-25T21:53:03.370Z,8.98
2023-01-25T21:55:29.986Z,8.02
2023-01-25T21:57:56.513Z,7.47
2023-01-25T22:00:24.744Z,8.57
2023-01-25T22:02:51.856Z,8.63
2023-01-25T22:05:19.174Z,8.82
2023-01-25T22:07:45.709Z,8.13
2023-01-25T22:10:12.616Z,7.00
2023-01-25T22:12:39.425Z,6.82
2023-01-25T22:15:06.997Z,6.50
2023-01-25T22:17:34.843Z,10.52
2023-01-25T22:20:01.262Z,8.73
2023-01-25T22:22:27.752Z,25.60
2023-01-25T22:24:54.213Z,10.43
2023-01-25T22:27:27.743Z,8.07
2023-01-25T22:29:54.314Z,8.93
2023-01-25T22:32:20.724Z,8.93
2023-01-25T22:34:48.530Z,18.75
2023-01-25T22:37:15.027Z,9.85
2023-01-25T22:39:41.667Z,10.45
2023-01-25T22:42:08.214Z,10.98
2023-01-25T22:44:34.705Z,11.68
2023-01-25T22:47:01.106Z,11.20
2023-01-25T22:49:27.521Z,11.65
2023-01-25T22:51:55.337Z,14.68
2023-01-25T22:54:21.871Z,10.73
2023-01-25T22:56:48.316Z,15.52
2023-01-25T22:59:18.716Z,10.05
2023-01-25T23:01:45.452Z,9.05
2023-01-25T23:04:12.026Z,11.38
2023-01-25T23:06:39.000Z,10.52
2023-01-25T23:09:07.113Z,7.70
2023-01-25T23:11:37.057Z,7.63
2023-01-25T23:14:23.508Z,5.95
2023-01-25T23:16:49.981Z,5.70
2023-01-25T23:19:16.456Z,5.90
2023-01-25T23:21:43.009Z,5.82
2023-01-25T23:24:10.892Z,6.22
2023-01-25T23:26:37.826Z,5.65
2023-01-25T23:29:05.266Z,5.93
2023-01-25T23:31:31.813Z,6.47
2023-01-25T23:33:59.683Z,5.68
2023-01-25T23:36:27.483Z,6.28
2023-01-25T23:38:54.154Z,6.82
2023-01-25T23:41:22.744Z,6.32
2023-01-25T23:43:49.417Z,6.22
2023-01-25T23:46:16.846Z,5.70
2023-01-25T23:48:43.394Z,6.10
2023-01-25T23:51:10.983Z,6.78
2023-01-25T23:53:38.084Z,6.80
2023-01-25T23:56:06.245Z,6.75
2023-01-25T23:58:34.545Z,6.78
